sensor_id;sensor_type;location;lat;lon;timestamp;pressure;altitude;pressure_sealevel;temperature;humidity
51321;BME280;38732;49.556;6.286;2022-11-15T00:01:15;99111.63;;;14.26;100.00
51321;BME280;38732;49.556;6.286;2022-11-15T00:03:44;99108.97;;;14.28;100.00
51321;BME280;38732;49.556;6.286;2022-11-15T00:06:12;99111.47;;;14.32;100.00
51321;BME280;38732;49.556;6.286;2022-11-15T00:08:41;99108.88;;;14.34;100.00
51321;BME280;38732;49.556;6.286;2022-11-15T00:11:11;99108.88;;;14.32;100.00
51321;BME280;38732;49.556;6.286;2022-11-15T00:13:40;99103.66;;;14.34;100.00
51321;BME280;38732;49.556;6.286;2022-11-15T00:16:08;99105.28;;;14.39;100.00
51321;BME280;38732;49.556;6.286;2022-11-15T00:18:38;99096.00;;;13.84;100.00
51321;BME280;38732;49.556;6.286;2022-11-15T00:21:10;99100.25;;;14.32;100.00
51321;BME280;38732;49.556;6.286;2022-11-15T00:23:39;99088.59;;;14.09;100.00
51321;BME280;38732;49.556;6.286;2022-11-15T00:26:11;99095.63;;;14.46;100.00
51321;BME280;38732;49.556;6.286;2022-11-15T00:28:40;99092.03;;;14.52;100.00
51321;BME280;38732;49.556;6.286;2022-11-15T00:31:12;99089.38;;;14.55;100.00
51321;BME280;38732;49.556;6.286;2022-11-15T00:33:43;99095.03;;;13.90;100.00
51321;BME280;38732;49.556;6.286;2022-11-15T00:36:11;99086.94;;;14.05;100.00
51321;BME280;38732;49.556;6.286;2022-11-15T00:38:40;99098.38;;;14.38;100.00
51321;BME280;38732;49.556;6.286;2022-11-15T00:41:08;99095.56;;;13.09;100.00
51321;BME280;38732;49.556;6.286;2022-11-15T00:43:37;99085.63;;;13.86;100.00
51321;BME280;38732;49.556;6.286;2022-11-15T00:46:05;99098.72;;;13.31;100.00
51321;BME280;38732;49.556;6.286;2022-11-15T00:48:33;99084.69;;;13.88;100.00
51321;BME280;38732;49.556;6.286;2022-11-15T00:51:02;99087.75;;;14.07;100.00
51321;BME280;38732;49.556;6.286;2022-11-15T00:53:30;99083.69;;;13.95;100.00
51321;BME280;38732;49.556;6.286;2022-11-15T00:55:58;99084.19;;;13.69;100.00
51321;BME280;38732;49.556;6.286;2022-11-15T00:58:26;99098.59;;;14.28;100.00
51321;BME280;38732;49.556;6.286;2022-11-15T01:00:55;99093.34;;;13.87;100.00
51321;BME280;38732;49.556;6.286;2022-11-15T01:03:23;99086.03;;;13.63;100.00
51321;BME280;38732;49.556;6.286;2022-11-15T01:05:51;99088.94;;;14.34;100.00
51321;BME280;38732;49.556;6.286;2022-11-15T01:08:19;99097.38;;;13.58;100.00
51321;BME280;38732;49.556;6.286;2022-11-15T01:10:47;99099.19;;;12.99;100.00
51321;BME280;38732;49.556;6.286;2022-11-15T01:13:16;99097.44;;;13.55;100.00
51321;BME280;38732;49.556;6.286;2022-11-15T01:15:44;99101.16;;;12.20;100.00
51321;BME280;38732;49.556;6.286;2022-11-15T01:18:12;99098.72;;;12.74;100.00
51321;BME280;38732;49.556;6.286;2022-11-15T01:20:41;99102.81;;;12.87;100.00
51321;BME280;38732;49.556;6.286;2022-11-15T01:23:10;99101.88;;;13.47;100.00
51321;BME280;38732;49.556;6.286;2022-11-15T01:25:38;99099.44;;;12.82;100.00
51321;BME280;38732;49.556;6.286;2022-11-15T01:28:07;99106.72;;;12.59;100.00
51321;BME280;38732;49.556;6.286;2022-11-15T01:30:35;99098.09;;;14.10;100.00
51321;BME280;38732;49.556;6.286;2022-11-15T01:33:04;99101.19;;;13.37;100.00
51321;BME280;38732;49.556;6.286;2022-11-15T01:35:32;99096.00;;;14.28;100.00
51321;BME280;38732;49.556;6.286;2022-11-15T01:38:00;99100.53;;;14.60;100.00
51321;BME280;38732;49.556;6.286;2022-11-15T01:40:29;99097.06;;;13.74;100.00
51321;BME280;38732;49.556;6.286;2022-11-15T01:42:57;99101.53;;;14.54;100.00
51321;BME280;38732;49.556;6.286;2022-11-15T01:45:26;99101.34;;;13.76;100.00
51321;BME280;38732;49.556;6.286;2022-11-15T01:47:55;99097.47;;;14.39;100.00
51321;BME280;38732;49.556;6.286;2022-11-15T01:50:28;99091.38;;;14.00;100.00
51321;BME280;38732;49.556;6.286;2022-11-15T01:52:57;99076.28;;;14.61;100.00
51321;BME280;38732;49.556;6.286;2022-11-15T01:55:27;99082.28;;;13.79;100.00
51321;BME280;38732;49.556;6.286;2022-11-15T01:58:01;99085.97;;;14.51;100.00
51321;BME280;38732;49.556;6.286;2022-11-15T02:00:32;99077.53;;;13.99;100.00
51321;BME280;38732;49.556;6.286;2022-11-15T02:03:01;99084.66;;;14.32;100.00
51321;BME280;38732;49.556;6.286;2022-11-15T02:05:30;99089.66;;;14.41;100.00
51321;BME280;38732;49.556;6.286;2022-11-15T02:07:59;99083.41;;;14.09;100.00
51321;BME280;38732;49.556;6.286;2022-11-15T02:10:28;99082.41;;;14.57;100.00
51321;BME280;38732;49.556;6.286;2022-11-15T02:12:57;99078.31;;;14.45;100.00
51321;BME280;38732;49.556;6.286;2022-11-15T02:15:43;99078.13;;;14.54;100.00
51321;BME280;38732;49.556;6.286;2022-11-15T02:18:24;99080.22;;;13.95;100.00
51321;BME280;38732;49.556;6.286;2022-11-15T02:27:21;99064.28;;;14.13;100.00
51321;BME280;38732;49.556;6.286;2022-11-15T02:32:50;99064.72;;;14.34;100.00
51321;BME280;38732;49.556;6.286;2022-11-15T02:38:00;99072.13;;;14.51;100.00
51321;BME280;38732;49.556;6.286;2022-11-15T02:40:58;99062.56;;;14.54;100.00
51321;BME280;38732;49.556;6.286;2022-11-15T02:43:32;99060.94;;;14.47;100.00
51321;BME280;38732;49.556;6.286;2022-11-15T02:46:10;99051.72;;;14.34;100.00
51321;BME280;38732;49.556;6.286;2022-11-15T02:48:43;99064.31;;;14.54;100.00
51321;BME280;38732;49.556;6.286;2022-11-15T02:51:11;99052.03;;;14.60;99.29
51321;BME280;38732;49.556;6.286;2022-11-15T02:53:40;99045.03;;;14.62;98.94
51321;BME280;38732;49.556;6.286;2022-11-15T02:56:09;99050.31;;;14.59;98.42
51321;BME280;38732;49.556;6.286;2022-11-15T03:01:38;99034.81;;;14.55;98.94
51321;BME280;38732;49.556;6.286;2022-11-15T03:07:12;99036.63;;;14.51;97.92
51321;BME280;38732;49.556;6.286;2022-11-15T03:12:46;99030.59;;;14.49;97.88
51321;BME280;38732;49.556;6.286;2022-11-15T03:15:19;99029.03;;;14.42;98.51
51321;BME280;38732;49.556;6.286;2022-11-15T03:17:55;99031.00;;;13.90;100.00
51321;BME280;38732;49.556;6.286;2022-11-15T03:20:29;99027.53;;;14.32;99.42
51321;BME280;38732;49.556;6.286;2022-11-15T03:23:05;99019.84;;;14.27;99.04
51321;BME280;38732;49.556;6.286;2022-11-15T03:25:37;99027.34;;;14.39;98.05
51321;BME280;38732;49.556;6.286;2022-11-15T03:28:12;99029.84;;;14.44;96.78
51321;BME280;38732;49.556;6.286;2022-11-15T03:30:42;99031.03;;;14.31;98.66
51321;BME280;38732;49.556;6.286;2022-11-15T03:33:12;99036.81;;;14.03;100.00
51321;BME280;38732;49.556;6.286;2022-11-15T03:35:44;99045.47;;;12.55;100.00
51321;BME280;38732;49.556;6.286;2022-11-15T03:38:23;99035.75;;;13.22;100.00
51321;BME280;38732;49.556;6.286;2022-11-15T03:43:32;99031.50;;;12.65;100.00
51321;BME280;38732;49.556;6.286;2022-11-15T03:46:10;99035.13;;;13.09;100.00
51321;BME280;38732;49.556;6.286;2022-11-15T03:48:45;99038.22;;;13.29;100.00
51321;BME280;38732;49.556;6.286;2022-11-15T03:51:15;99031.13;;;13.84;100.00
51321;BME280;38732;49.556;6.286;2022-11-15T03:53:43;99036.88;;;13.55;100.00
51321;BME280;38732;49.556;6.286;2022-11-15T03:56:12;99034.56;;;13.85;100.00
51321;BME280;38732;49.556;6.286;2022-11-15T03:58:40;99042.22;;;13.47;100.00
51321;BME280;38732;49.556;6.286;2022-11-15T04:01:08;99040.34;;;14.00;100.00
51321;BME280;38732;49.556;6.286;2022-11-15T04:03:36;99032.28;;;13.69;100.00
51321;BME280;38732;49.556;6.286;2022-11-15T04:06:05;99035.13;;;13.57;100.00
51321;BME280;38732;49.556;6.286;2022-11-15T04:08:33;99029.09;;;13.55;100.00
51321;BME280;38732;49.556;6.286;2022-11-15T04:11:01;99026.94;;;14.19;98.80
51321;BME280;38732;49.556;6.286;2022-11-15T04:13:30;99027.69;;;13.84;99.58
51321;BME280;38732;49.556;6.286;2022-11-15T04:15:58;99027.19;;;13.65;100.00
51321;BME280;38732;49.556;6.286;2022-11-15T04:18:26;99025.00;;;13.88;99.88
51321;BME280;38732;49.556;6.286;2022-11-15T04:20:54;99020.66;;;13.89;100.00
51321;BME280;38732;49.556;6.286;2022-11-15T04:23:23;99026.81;;;13.40;100.00
51321;BME280;38732;49.556;6.286;2022-11-15T04:25:52;99029.03;;;14.01;99.33
51321;BME280;38732;49.556;6.286;2022-11-15T04:28:22;99021.31;;;13.55;100.00
51321;BME280;38732;49.556;6.286;2022-11-15T04:30:50;99029.16;;;13.53;100.00
51321;BME280;38732;49.556;6.286;2022-11-15T04:33:19;99030.00;;;13.06;100.00
51321;BME280;38732;49.556;6.286;2022-11-15T04:35:48;99029.53;;;13.78;100.00
51321;BME280;38732;49.556;6.286;2022-11-15T04:38:17;99031.66;;;14.00;99.34
51321;BME280;38732;49.556;6.286;2022-11-15T04:40:46;99037.41;;;12.16;100.00
51321;BME280;38732;49.556;6.286;2022-11-15T04:43:14;99029.41;;;13.40;100.00
51321;BME280;38732;49.556;6.286;2022-11-15T04:45:42;99025.59;;;13.59;100.00
51321;BME280;38732;49.556;6.286;2022-11-15T04:48:11;99035.19;;;13.55;100.00
51321;BME280;38732;49.556;6.286;2022-11-15T04:50:39;99047.09;;;12.60;100.00
51321;BME280;38732;49.556;6.286;2022-11-15T04:53:07;99043.59;;;12.66;100.00
51321;BME280;38732;49.556;6.286;2022-11-15T04:55:35;99033.56;;;13.48;100.00
51321;BME280;38732;49.556;6.286;2022-11-15T04:58:03;99040.25;;;13.60;100.00
51321;BME280;38732;49.556;6.286;2022-11-15T05:00:32;99032.38;;;13.65;98.48
51321;BME280;38732;49.556;6.286;2022-11-15T05:03:00;99041.53;;;13.39;100.00
51321;BME280;38732;49.556;6.286;2022-11-15T05:05:28;99038.06;;;12.30;100.00
51321;BME280;38732;49.556;6.286;2022-11-15T05:07:56;99039.47;;;13.56;100.00
51321;BME280;38732;49.556;6.286;2022-11-15T05:10:35;99041.59;;;13.81;97.89
51321;BME280;38732;49.556;6.286;2022-11-15T05:13:04;99038.09;;;13.82;97.28
51321;BME280;38732;49.556;6.286;2022-11-15T05:15:32;99044.13;;;13.84;97.43
51321;BME280;38732;49.556;6.286;2022-11-15T05:18:00;99051.97;;;13.36;98.38
51321;BME280;38732;49.556;6.286;2022-11-15T05:20:28;99044.19;;;13.36;99.96
51321;BME280;38732;49.556;6.286;2022-11-15T05:22:56;99042.94;;;13.06;100.00
51321;BME280;38732;49.556;6.286;2022-11-15T05:25:25;99038.00;;;13.87;95.66
51321;BME280;38732;49.556;6.286;2022-11-15T05:27:53;99038.41;;;13.19;100.00
51321;BME280;38732;49.556;6.286;2022-11-15T05:30:21;99040.31;;;13.57;97.82
51321;BME280;38732;49.556;6.286;2022-11-15T05:32:50;99039.53;;;13.52;99.35
51321;BME280;38732;49.556;6.286;2022-11-15T05:35:27;99041.72;;;13.25;100.00
51321;BME280;38732;49.556;6.286;2022-11-15T05:37:57;99049.81;;;13.07;100.00
51321;BME280;38732;49.556;6.286;2022-11-15T05:40:27;99036.28;;;13.42;99.66
51321;BME280;38732;49.556;6.286;2022-11-15T05:42:57;99027.06;;;13.23;100.00
51321;BME280;38732;49.556;6.286;2022-11-15T05:45:28;99030.97;;;13.48;97.79
51321;BME280;38732;49.556;6.286;2022-11-15T05:47:58;99031.44;;;13.69;94.14
51321;BME280;38732;49.556;6.286;2022-11-15T05:50:28;99032.53;;;13.09;99.63
51321;BME280;38732;49.556;6.286;2022-11-15T05:52:56;99033.22;;;13.19;96.59
51321;BME280;38732;49.556;6.286;2022-11-15T05:55:25;99033.56;;;12.99;99.05
51321;BME280;38732;49.556;6.286;2022-11-15T05:57:53;99030.69;;;13.14;97.87
51321;BME280;38732;49.556;6.286;2022-11-15T06:00:21;99025.94;;;12.88;98.59
51321;BME280;38732;49.556;6.286;2022-11-15T06:02:50;99031.34;;;13.25;94.93
51321;BME280;38732;49.556;6.286;2022-11-15T06:05:18;99034.13;;;13.16;93.57
51321;BME280;38732;49.556;6.286;2022-11-15T06:07:46;99031.47;;;13.21;90.41
51321;BME280;38732;49.556;6.286;2022-11-15T06:10:14;99043.84;;;13.03;91.51
51321;BME280;38732;49.556;6.286;2022-11-15T06:12:43;99042.06;;;13.07;90.37
51321;BME280;38732;49.556;6.286;2022-11-15T06:15:11;99033.50;;;13.00;89.08
51321;BME280;38732;49.556;6.286;2022-11-15T06:17:39;99034.47;;;12.96;91.66
51321;BME280;38732;49.556;6.286;2022-11-15T06:20:08;99023.47;;;12.82;94.03
51321;BME280;38732;49.556;6.286;2022-11-15T06:22:36;99029.34;;;12.93;92.09
51321;BME280;38732;49.556;6.286;2022-11-15T06:25:04;99029.63;;;12.74;90.35
51321;BME280;38732;49.556;6.286;2022-11-15T06:27:32;99033.16;;;12.70;90.25
51321;BME280;38732;49.556;6.286;2022-11-15T06:30:01;99029.81;;;12.64;92.37
51321;BME280;38732;49.556;6.286;2022-11-15T06:32:29;99034.84;;;12.71;92.57
51321;BME280;38732;49.556;6.286;2022-11-15T06:34:57;99032.34;;;12.67;92.48
51321;BME280;38732;49.556;6.286;2022-11-15T06:37:25;99034.25;;;12.54;93.96
51321;BME280;38732;49.556;6.286;2022-11-15T06:39:54;99032.41;;;12.62;92.97
51321;BME280;38732;49.556;6.286;2022-11-15T06:42:22;99032.38;;;12.64;92.39
51321;BME280;38732;49.556;6.286;2022-11-15T06:44:50;99037.63;;;12.59;91.40
51321;BME280;38732;49.556;6.286;2022-11-15T06:47:18;99042.88;;;12.56;91.54
51321;BME280;38732;49.556;6.286;2022-11-15T06:49:47;99041.22;;;12.50;93.11
51321;BME280;38732;49.556;6.286;2022-11-15T06:52:15;99043.84;;;12.49;93.13
51321;BME280;38732;49.556;6.286;2022-11-15T06:54:43;99041.25;;;12.47;91.60
51321;BME280;38732;49.556;6.286;2022-11-15T06:57:11;99041.31;;;12.43;91.31
51321;BME280;38732;49.556;6.286;2022-11-15T06:59:40;99044.06;;;12.32;92.25
51321;BME280;38732;49.556;6.286;2022-11-15T07:02:12;99044.09;;;12.30;91.80
51321;BME280;38732;49.556;6.286;2022-11-15T07:04:41;99054.53;;;12.26;92.46
51321;BME280;38732;49.556;6.286;2022-11-15T07:07:09;99057.16;;;12.21;91.32
51321;BME280;38732;49.556;6.286;2022-11-15T07:09:37;99054.59;;;12.20;91.69
51321;BME280;38732;49.556;6.286;2022-11-15T07:12:06;99057.16;;;12.20;91.03
51321;BME280;38732;49.556;6.286;2022-11-15T07:14:34;99053.84;;;12.13;91.83
51321;BME280;38732;49.556;6.286;2022-11-15T07:17:05;99056.38;;;12.15;92.74
51321;BME280;38732;49.556;6.286;2022-11-15T07:19:34;99054.59;;;12.20;94.70
51321;BME280;38732;49.556;6.286;2022-11-15T07:22:02;99059.81;;;12.18;93.71
51321;BME280;38732;49.556;6.286;2022-11-15T07:24:30;99054.63;;;12.18;93.22
51321;BME280;38732;49.556;6.286;2022-11-15T07:26:58;99061.44;;;12.22;92.53
51321;BME280;38732;49.556;6.286;2022-11-15T07:29:26;99053.69;;;12.22;92.96
51321;BME280;38732;49.556;6.286;2022-11-15T07:31:55;99057.97;;;12.26;92.74
51321;BME280;38732;49.556;6.286;2022-11-15T07:34:23;99053.59;;;12.30;92.36
51321;BME280;38732;49.556;6.286;2022-11-15T07:36:51;99046.69;;;12.30;90.99
51321;BME280;38732;49.556;6.286;2022-11-15T07:39:19;99049.28;;;12.30;91.74
51321;BME280;38732;49.556;6.286;2022-11-15T07:41:48;99045.84;;;12.28;92.86
51321;BME280;38732;49.556;6.286;2022-11-15T07:44:16;99037.09;;;12.37;93.56
51321;BME280;38732;49.556;6.286;2022-11-15T07:56:02;99036.97;;;12.46;93.54
51321;BME280;38732;49.556;6.286;2022-11-15T07:58:30;99039.44;;;12.56;92.91
51321;BME280;38732;49.556;6.286;2022-11-15T08:03:37;99040.06;;;12.70;93.54
51321;BME280;38732;49.556;6.286;2022-11-15T08:06:05;99050.34;;;12.74;93.76
51321;BME280;38732;49.556;6.286;2022-11-15T08:08:34;99034.81;;;12.74;93.11
51321;BME280;38732;49.556;6.286;2022-11-15T08:11:02;99038.22;;;12.78;91.49
51321;BME280;38732;49.556;6.286;2022-11-15T08:13:31;99030.38;;;12.81;93.80
51321;BME280;38732;49.556;6.286;2022-11-15T08:16:00;99027.66;;;12.89;92.38
51321;BME280;38732;49.556;6.286;2022-11-15T08:18:28;99027.59;;;12.93;92.21
51321;BME280;38732;49.556;6.286;2022-11-15T08:21:01;99027.53;;;12.97;93.59
51321;BME280;38732;49.556;6.286;2022-11-15T08:23:30;99022.34;;;12.97;94.40
51321;BME280;38732;49.556;6.286;2022-11-15T08:26:02;99025.66;;;13.05;93.52
51321;BME280;38732;49.556;6.286;2022-11-15T08:28:31;99012.56;;;13.12;92.88
51321;BME280;38732;49.556;6.286;2022-11-15T08:31:00;99016.81;;;13.18;92.40
51321;BME280;38732;49.556;6.286;2022-11-15T08:33:29;99005.53;;;13.21;92.46
51321;BME280;38732;49.556;6.286;2022-11-15T08:36:00;99012.31;;;13.28;91.79
51321;BME280;38732;49.556;6.286;2022-11-15T08:38:29;99013.16;;;13.30;92.77
51321;BME280;38732;49.556;6.286;2022-11-15T08:41:03;99013.91;;;13.35;91.76
51321;BME280;38732;49.556;6.286;2022-11-15T08:43:32;99006.00;;;13.43;91.29
51321;BME280;38732;49.556;6.286;2022-11-15T08:46:00;99011.16;;;13.46;91.76
51321;BME280;38732;49.556;6.286;2022-11-15T08:48:29;99001.50;;;13.52;90.04
51321;BME280;38732;49.556;6.286;2022-11-15T08:50:57;98995.44;;;13.52;90.80
51321;BME280;38732;49.556;6.286;2022-11-15T08:53:25;99000.47;;;13.61;90.80
51321;BME280;38732;49.556;6.286;2022-11-15T08:55:54;98999.56;;;13.64;91.49
51321;BME280;38732;49.556;6.286;2022-11-15T08:58:22;98989.19;;;13.64;90.66
51321;BME280;38732;49.556;6.286;2022-11-15T09:00:50;98989.03;;;13.71;90.05
51321;BME280;38732;49.556;6.286;2022-11-15T09:03:18;98989.84;;;13.73;89.79
51321;BME280;38732;49.556;6.286;2022-11-15T09:05:46;98978.50;;;13.77;90.96
51321;BME280;38732;49.556;6.286;2022-11-15T09:08:15;98975.72;;;13.87;91.92
51321;BME280;38732;49.556;6.286;2022-11-15T09:10:43;98987.50;;;14.03;90.74
51321;BME280;38732;49.556;6.286;2022-11-15T09:13:11;98987.38;;;14.08;91.48
51321;BME280;38732;49.556;6.286;2022-11-15T09:15:39;98976.94;;;14.11;91.51
51321;BME280;38732;49.556;6.286;2022-11-15T09:18:08;98980.09;;;14.23;90.95
51321;BME280;38732;49.556;6.286;2022-11-15T09:20:36;98973.06;;;14.29;91.19
51321;BME280;38732;49.556;6.286;2022-11-15T09:23:05;98963.22;;;14.43;90.81
51321;BME280;38732;49.556;6.286;2022-11-15T09:25:33;98964.75;;;14.50;89.31
51321;BME280;38732;49.556;6.286;2022-11-15T09:28:05;98961.22;;;14.56;89.96
51321;BME280;38732;49.556;6.286;2022-11-15T09:30:34;98964.50;;;14.62;89.36
51321;BME280;38732;49.556;6.286;2022-11-15T09:33:09;98962.59;;;14.69;87.46
51321;BME280;38732;49.556;6.286;2022-11-15T09:35:38;98960.78;;;14.73;88.27
51321;BME280;38732;49.556;6.286;2022-11-15T09:38:06;98947.72;;;14.76;88.26
51321;BME280;38732;49.556;6.286;2022-11-15T09:40:36;98946.53;;;14.87;86.91
51321;BME280;38732;49.556;6.286;2022-11-15T09:43:26;98957.50;;;14.99;86.69
51321;BME280;38732;49.556;6.286;2022-11-15T09:46:16;98952.13;;;15.05;87.51
51321;BME280;38732;49.556;6.286;2022-11-15T09:48:59;98944.06;;;15.16;85.38
51321;BME280;38732;49.556;6.286;2022-11-15T09:51:47;98939.63;;;15.19;86.41
51321;BME280;38732;49.556;6.286;2022-11-15T09:54:50;98944.50;;;15.31;85.28
51321;BME280;38732;49.556;6.286;2022-11-15T09:57:13;98941.75;;;15.38;86.34
51321;BME280;38732;49.556;6.286;2022-11-15T10:05:31;98925.72;;;15.51;82.42
51321;BME280;38732;49.556;6.286;2022-11-15T10:11:00;98910.47;;;15.70;83.51
51321;BME280;38732;49.556;6.286;2022-11-15T10:13:32;98900.16;;;15.66;83.21
51321;BME280;38732;49.556;6.286;2022-11-15T10:19:01;98902.66;;;15.69;81.51
51321;BME280;38732;49.556;6.286;2022-11-15T10:21:55;98906.72;;;15.79;81.44
51321;BME280;38732;49.556;6.286;2022-11-15T10:24:35;98903.03;;;15.86;80.26
51321;BME280;38732;49.556;6.286;2022-11-15T10:27:10;98899.72;;;15.81;80.32
51321;BME280;38732;49.556;6.286;2022-11-15T10:29:49;98894.25;;;15.90;79.52
51321;BME280;38732;49.556;6.286;2022-11-15T10:32:20;98895.63;;;15.12;85.04
51321;BME280;38732;49.556;6.286;2022-11-15T10:34:49;98878.22;;;16.03;78.53
51321;BME280;38732;49.556;6.286;2022-11-15T10:37:28;98871.72;;;16.16;78.41
51321;BME280;38732;49.556;6.286;2022-11-15T10:40:23;98867.94;;;16.25;78.00
51321;BME280;38732;49.556;6.286;2022-11-15T10:43:24;98868.03;;;16.23;77.58
51321;BME280;38732;49.556;6.286;2022-11-15T10:45:52;98864.91;;;16.38;77.48
51321;BME280;38732;49.556;6.286;2022-11-15T10:48:22;98865.56;;;16.45;77.21
51321;BME280;38732;49.556;6.286;2022-11-15T10:50:52;98855.91;;;16.47;76.48
51321;BME280;38732;49.556;6.286;2022-11-15T10:53:28;98848.63;;;16.57;77.61
51321;BME280;38732;49.556;6.286;2022-11-15T10:56:05;98843.91;;;16.68;75.58
51321;BME280;38732;49.556;6.286;2022-11-15T10:58:44;98838.31;;;16.80;75.04
51321;BME280;38732;49.556;6.286;2022-11-15T11:01:20;98835.34;;;16.90;75.36
51321;BME280;38732;49.556;6.286;2022-11-15T11:04:07;98829.34;;;16.88;74.69
51321;BME280;38732;49.556;6.286;2022-11-15T11:06:53;98821.78;;;17.05;72.22
51321;BME280;38732;49.556;6.286;2022-11-15T11:09:32;98812.78;;;16.89;73.27
51321;BME280;38732;49.556;6.286;2022-11-15T11:12:00;98813.03;;;16.83;73.17
51321;BME280;38732;49.556;6.286;2022-11-15T11:14:34;98803.81;;;16.97;74.33
51321;BME280;38732;49.556;6.286;2022-11-15T11:17:12;98805.66;;;16.94;74.91
51321;BME280;38732;49.556;6.286;2022-11-15T11:19:58;98799.59;;;16.93;75.64
51321;BME280;38732;49.556;6.286;2022-11-15T11:22:40;98796.03;;;16.96;75.98
51321;BME280;38732;49.556;6.286;2022-11-15T11:25:30;98793.41;;;16.96;75.10
51321;BME280;38732;49.556;6.286;2022-11-15T11:28:29;98792.69;;;16.42;77.26
51321;BME280;38732;49.556;6.286;2022-11-15T11:34:09;98785.75;;;16.66;75.72
51321;BME280;38732;49.556;6.286;2022-11-15T11:40:04;98781.75;;;15.51;82.74
51321;BME280;38732;49.556;6.286;2022-11-15T11:51:36;98727.78;;;16.59;78.32
51321;BME280;38732;49.556;6.286;2022-11-15T11:54:19;98714.28;;;17.19;77.04
51321;BME280;38732;49.556;6.286;2022-11-15T11:56:50;98718.47;;;17.23;75.14
51321;BME280;38732;49.556;6.286;2022-11-15T11:59:23;98712.81;;;17.56;75.83
51321;BME280;38732;49.556;6.286;2022-11-15T12:01:57;98712.31;;;17.68;74.38
51321;BME280;38732;49.556;6.286;2022-11-15T12:04:29;98699.09;;;17.73;73.07
51321;BME280;38732;49.556;6.286;2022-11-15T12:09:44;98687.84;;;17.71;72.18
51321;BME280;38732;49.556;6.286;2022-11-15T12:12:31;98692.03;;;17.75;74.43
51321;BME280;38732;49.556;6.286;2022-11-15T12:15:12;98685.38;;;17.67;72.97
51321;BME280;38732;49.556;6.286;2022-11-15T12:17:44;98679.81;;;17.55;74.46
51321;BME280;38732;49.556;6.286;2022-11-15T12:20:20;98689.63;;;16.82;75.33
51321;BME280;38732;49.556;6.286;2022-11-15T12:23:00;98673.69;;;17.34;73.39
51321;BME280;38732;49.556;6.286;2022-11-15T12:25:48;98691.00;;;16.20;81.45
51321;BME280;38732;49.556;6.286;2022-11-15T12:28:39;98678.84;;;16.91;76.94
51321;BME280;38732;49.556;6.286;2022-11-15T12:33:44;98653.63;;;17.56;75.22
51321;BME280;38732;49.556;6.286;2022-11-15T12:36:49;98651.22;;;17.72;73.43
51321;BME280;38732;49.556;6.286;2022-11-15T12:39:17;98649.19;;;17.16;74.78
51321;BME280;38732;49.556;6.286;2022-11-15T12:47:04;98639.19;;;17.90;73.58
51321;BME280;38732;49.556;6.286;2022-11-15T12:52:07;98622.59;;;17.91;70.86
51321;BME280;38732;49.556;6.286;2022-11-15T13:02:24;98603.16;;;18.36;70.63
51321;BME280;38732;49.556;6.286;2022-11-15T13:05:25;98599.41;;;18.42;68.93
51321;BME280;38732;49.556;6.286;2022-11-15T13:17:46;98591.72;;;18.20;69.09
51321;BME280;38732;49.556;6.286;2022-11-15T13:22:53;98585.19;;;17.91;70.91
51321;BME280;38732;49.556;6.286;2022-11-15T13:31:19;98573.66;;;17.74;73.21
51321;BME280;38732;49.556;6.286;2022-11-15T13:33:49;98560.75;;;17.71;73.60
51321;BME280;38732;49.556;6.286;2022-11-15T13:36:19;98558.00;;;17.74;72.36
51321;BME280;38732;49.556;6.286;2022-11-15T13:39:06;98551.44;;;17.65;73.78
51321;BME280;38732;49.556;6.286;2022-11-15T13:41:48;98544.00;;;17.56;73.95
51321;BME280;38732;49.556;6.286;2022-11-15T13:44:23;98540.91;;;17.67;72.74
51321;BME280;38732;49.556;6.286;2022-11-15T13:47:14;98523.06;;;17.58;72.98
51321;BME280;38732;49.556;6.286;2022-11-15T13:49:42;98524.88;;;17.56;72.61
51321;BME280;38732;49.556;6.286;2022-11-15T13:52:13;98521.28;;;17.58;74.20
51321;BME280;38732;49.556;6.286;2022-11-15T13:54:50;98519.38;;;17.62;73.21
51321;BME280;38732;49.556;6.286;2022-11-15T13:57:29;98516.38;;;17.71;72.78
51321;BME280;38732;49.556;6.286;2022-11-15T14:00:04;98512.63;;;17.58;73.57
51321;BME280;38732;49.556;6.286;2022-11-15T14:02:35;98519.38;;;17.62;73.27
51321;BME280;38732;49.556;6.286;2022-11-15T14:05:19;98507.28;;;17.40;72.59
51321;BME280;38732;49.556;6.286;2022-11-15T14:10:42;98500.59;;;17.54;72.12
51321;BME280;38732;49.556;6.286;2022-11-15T14:13:28;98494.19;;;17.61;72.78
51321;BME280;38732;49.556;6.286;2022-11-15T14:16:17;98483.56;;;17.65;73.06
51321;BME280;38732;49.556;6.286;2022-11-15T14:18:49;98482.28;;;17.55;73.49
51321;BME280;38732;49.556;6.286;2022-11-15T14:21:18;98474.66;;;17.51;74.19
51321;BME280;38732;49.556;6.286;2022-11-15T14:23:47;98473.91;;;17.47;73.06
51321;BME280;38732;49.556;6.286;2022-11-15T14:26:32;98465.53;;;17.59;73.23
51321;BME280;38732;49.556;6.286;2022-11-15T14:29:26;98466.72;;;17.13;75.08
51321;BME280;38732;49.556;6.286;2022-11-15T14:32:15;98464.03;;;17.35;73.73
51321;BME280;38732;49.556;6.286;2022-11-15T14:34:44;98456.66;;;17.24;74.32
51321;BME280;38732;49.556;6.286;2022-11-15T14:37:26;98463.47;;;17.28;73.55
51321;BME280;38732;49.556;6.286;2022-11-15T14:39:54;98456.09;;;17.17;74.12
51321;BME280;38732;49.556;6.286;2022-11-15T14:42:23;98459.00;;;16.89;75.32
51321;BME280;38732;49.556;6.286;2022-11-15T14:44:51;98454.97;;;17.23;74.21
51321;BME280;38732;49.556;6.286;2022-11-15T14:47:20;98452.94;;;17.30;74.26
51321;BME280;38732;49.556;6.286;2022-11-15T14:49:48;98447.00;;;17.26;74.44
51321;BME280;38732;49.556;6.286;2022-11-15T14:52:30;98452.81;;;16.92;75.74
51321;BME280;38732;49.556;6.286;2022-11-15T14:54:59;98453.53;;;17.16;74.75
51321;BME280;38732;49.556;6.286;2022-11-15T14:57:28;98449.56;;;17.07;74.92
51321;BME280;38732;49.556;6.286;2022-11-15T14:59:56;98442.47;;;17.11;75.00
51321;BME280;38732;49.556;6.286;2022-11-15T15:02:26;98438.94;;;17.12;73.91
51321;BME280;38732;49.556;6.286;2022-11-15T15:04:55;98440.72;;;16.91;75.08
51321;BME280;38732;49.556;6.286;2022-11-15T15:07:23;98444.34;;;17.07;75.33